Tiempo atmosférico en la estación meteorológica de San Sebastián Aeropuerto, Gipuzkoa (4 m.)



Fecha
DESCASC
Temp. máxima en grados centígrados (hora)
DESCASC
Temp. mínima en grados centígrados (hora)
DESCASC
Temp. media en grados centígrados
DESCASC
Racha de viento máxima en m/sg (hora)
DESCASC
Velocidad máxima media en intervalos de 10 minutos(hora)
DESCASC
Precipitaciones diarias en mm
DESCASC
Precipitaciones de 00:00 a 06:00 en mm
DESCASC
Precipitaciones de 06:00 a 12:00 en mm
DESCASC
Precipitaciones de 12:00 a 18:00 en mm
DESCASC
Precipitaciones de 18:00 a 24:00 en mm
DESCASC
17-02-2019 24.3 (15:00) 10.3 (23:20) 17.3 11.67 (10:20) 7.78 (08:00) 0 0 0 0 0
16-02-2019 23 (15:30) 5.6 (06:40) 14.3 12.5 (14:20) 8.33 (14:20) 0 0 0 0 0
15-02-2019 23.1 (13:00) 8 (23:59) 15.6 9.17 (02:50) 6.39 (03:00) 0 0 0 0 0
14-02-2019 22.7 (16:10) 5.1 (00:00) 13.9 13.33 (13:30) 7.78 (13:50) 0 0 0 0 0
13-02-2019 16.5 (17:40) 3.1 (00:00) 9.8 5 (09:30) 3.33 (14:00) 0 0 0 0 0
12-02-2019 15.2 (16:30) 4.9 (00:00) 10 8.33 (15:30) 6.39 (16:00) 0 0 0 0 0
11-02-2019 15.2 (15:20) 8 (00:00) 11.6 17.5 (02:20) 6.94 (02:20) 2.8 1 1.7 0.1 0
10-02-2019 17.8 (10:40) 11.7 (00:00) 14.7 16.94 (11:20) 10.28 (02:10) 6.4 0 4.5 1.9 0
09-02-2019 17.3 (12:30) 6.6 (00:00) 11.9 5.83 (13:30) 3.89 (22:40) 0 0 0 0 0
08-02-2019 16.4 (16:40) 5 (00:00) 10.7 5.83 (14:50) 4.17 (15:00) 0 0 0 0 0
07-02-2019 14.2 (14:50) 7 (00:00) 10.6 8.89 (11:50) 5 (15:20) 0.5 0 0.5 0 0
06-02-2019 17.7 (14:00) 11.2 (00:00) 14.5 -- (--) -- (--) 0 0 0 0 0
05-02-2019 13.4 (15:20) 10.7 (00:00) 12 8.33 (07:20) 5 (00:10) 7.6 1.4 0.8 2.1 3.3
04-02-2019 13.5 (16:00) 2.2 (00:00) 7.9 7.78 (20:40) 5.28 (20:50) 1.1 0 0 0.7 0.4
03-02-2019 10.7 (14:10) 3.5 (00:00) 7.1 12.5 (06:20) 7.5 (06:20) 5.9 2.7 1.7 0 1.5
02-02-2019 11.6 (14:40) 7.2 (00:00) 9.4 19.72 (07:20) 10 (22:30) 19 12.7 3.8 2.5 0
01-02-2019 15.9 (11:40) 7.1 (00:00) 11.5 14.44 (09:50) 8.89 (10:20) 12.1 1.9 0 2.8 7.4
31-01-2019 18.7 (15:50) 9.4 (00:00) 14.1 11.67 (19:00) 6.67 (18:50) 50.3 3.9 9.3 1.2 35.9
30-01-2019 12.7 (15:30) 7.1 (00:00) 9.9 15.28 (00:40) 8.89 (00:40) 15 0.8 12.6 0.5 1.1
29-01-2019 13.1 (17:00) 8.6 (00:00) 10.9 23.33 (21:30) 12.5 (21:00) 12.6 2.9 1.9 6.7 1.1
28-01-2019 13.4 (13:10) 9 (00:00) 11.2 -- (--) -- (--) 14.2 11 2.3 0.3 0.6
27-01-2019 12.2 (06:00) 8.3 (00:00) 10.3 19.72 (05:10) 12.5 (06:10) 15.1 1.5 7.3 2.2 4.1
26-01-2019 15.1 (15:20) 8.1 (00:00) 11.6 -- (--) -- (--) 1.5 0.3 1.2 0 0
25-01-2019 13.6 (15:20) 6.7 (00:00) 10.2 10.28 (09:20) 6.39 (17:50) 15.7 0.8 6.8 3.9 4.2
24-01-2019 10.8 (00:10) 6.5 (00:00) 8.7 13.89 (00:40) 7.22 (00:20) 1.1 0.8 0 0 0.3
23-01-2019 13.1 (07:40) 8.8 (00:00) 11 20 (07:20) 10.83 (07:10) 22.8 11 6 3.4 2.4
22-01-2019 10.6 (15:50) 7.3 (00:00) 9 13.33 (16:20) 6.94 (12:10) 39.9 0.1 6.4 20.4 13
21-01-2019 9.9 (00:00) 8 (00:00) 8.9 9.72 (09:10) 7.22 (09:20) 1.8 1.2 0.6 0 0
20-01-2019 13.5 (13:50) 9.3 (00:00) 11.4 10.83 (10:50) 6.39 (10:50) 12.9 0 5.4 1.5 6
19-01-2019 13.5 (15:50) 7.9 (00:00) 10.7 7.78 (15:40) 5.56 (16:20) 1.7 1.4 0.3 0 0

Gráficas

Temp. máximas Temp. mínimas Temp. medias Precipitaciones Rachas de viento máximas Velocidades máximas media en intervalos de 10 minutos

Datos horarios

Fecha y hora oficial Temperatura (ºC) Velocidad del viento (km/h) Dirección del viento Racha (km/h) Dirección de racha Precipitación (mm) Presión (hPa) Tendencia (hPa) Humedad (%)
2019-02-17 23:00:00 10.9 6 Sudoeste 11 Oeste 0 1017.3 0 52
2019-02-17 22:00:00 12.5 4 Nordeste 15 Oeste 0 1017.1 0 41
2019-02-17 21:00:00 13.1 6 Sudoeste 15 Sudoeste 0 1017.4 0.7 46
2019-02-17 20:00:00 14.9 4 Sudoeste 13 Sudoeste 0 1017.3 0.3 46
2019-02-17 19:00:00 17.9 6 Noroeste 11 Oeste 0 1017.1 -0.3 35
2019-02-17 18:00:00 22.6 10 Sur 24 Sur 0 1016.7 -1.2 15
2019-02-17 17:00:00 23.8 15 Sudeste 26 Sudeste 0 1017 -1.5 14
2019-02-17 16:00:00 24.2 16 Sudeste 32 Sudeste 0 1017.4 -1.7 14
2019-02-17 15:00:00 23.8 9 Nordeste 26 Norte 0 1017.9 -1.6 17
2019-02-17 14:00:00 22.6 13 Norte 17 Norte 0 1018.5 -1.1 16
2019-02-17 13:00:00 22.2 12 Nordeste 18 Norte 0 1019.1 -0.4 17
2019-02-17 12:00:00 22.8 12 Norte 18 Norte 0 1019.5 0 15
2019-02-17 11:00:00 21.9 13 Sur 42 Sudoeste 0 1019.6 0.2 12
2019-02-17 10:00:00 20.6 21 Sur 33 Sudoeste 0 1019.5 0.1 11
2019-02-17 09:00:00 19.4 15 Sur 35 Sur 0 1019.5 -0.1 12
2019-02-17 08:00:00 19.2 28 Sur 37 Sur 0 1019.4 -0.1 12
2019-02-17 07:00:00 17.5 13 Sudoeste 26 Sur 0 1019.4 -0.3 12
2019-02-17 06:00:00 17.3 9 Sudoeste 17 Sudoeste 0 1019.6 -0.5 13
2019-02-17 05:00:00 18 12 Sudoeste 24 Oeste 0 1019.5 -0.9 14
2019-02-17 04:00:00 18.9 14 Sur 30 Sur 0 1019.7 -1 14
2019-02-17 03:00:00 18.2 17 Sur 26 Sudoeste 0 1020.1 -0.7 16
2019-02-17 02:00:00 14.1 6 Este 24 Sur 0 1020.4 -0.4 32
2019-02-17 01:00:00 13.3 6 Sur 13 Este 0 1020.7 -0.1 35
2019-02-17 00:00:00 15.3 4 Sudeste 18 Este 0 1020.8 -0.2 27
2019-02-16 23:00:00 16.4 8 Sudoeste 15 Sudoeste 0 1020.8 -0.4 21
2019-02-16 22:00:00 17.8 7 Sudoeste 17 Sur 0 1020.8 -0.5 17
2019-02-16 21:00:00 19.9 10 Sur 33 Sur 0 1021 -0.3 14
2019-02-16 20:00:00 19.6 9 Sur 33 Sudeste 0 1021.2 -0.3 17
2019-02-16 19:00:00 20.8 25 Sur 41 Sur 0 1021.3 -1 17
2019-02-16 18:00:00 22 21 Sur 42 Sur 0 1021.3 -1.6 17
2019-02-16 17:00:00 22.6 26 Sur 39 Sur 0 1021.5 -2 19
2019-02-16 16:00:00 22.9 18 Sur 33 Sur 0 1022.3 -2.1 21
2019-02-16 15:00:00 22.6 19 Sur 45 Sur 0 1022.9 -2.2 19
2019-02-16 14:00:00 22.4 18 Sudeste 39 Sur 0 1023.5 -1.9 19
2019-02-16 13:00:00 21.7 14 Sudeste 32 Sudeste 0 1024.4 -1.2 22
2019-02-16 12:00:00 20.1 23 Sudeste 33 Sudeste 0 1025.1 -0.8 27
2019-02-16 11:00:00 18.4 20 Sudeste 33 Sudeste 0 1025.4 -0.2 32
2019-02-16 10:00:00 16.5 23 Sudeste 32 Sudeste 0 1025.6 0.3 35
2019-02-16 09:00:00 14.7 15 Sudeste 26 Sudeste 0 1025.9 0.2 41
2019-02-16 08:00:00 7.7 10 Sudoeste 17 Sur 0 1025.6 0 72
2019-02-16 07:00:00 5.8 6 Oeste 11 Sudoeste 0 1025.3 -0.5 81
2019-02-16 06:00:00 5.8 4 Sudoeste 8 Sudoeste 0 1025.7 -0.7 80
2019-02-16 05:00:00 5.9 4 Oeste 9 Oeste 0 1025.6 -0.8 79
2019-02-16 04:00:00 5.9 6 Oeste 9 Noroeste 0 1025.8 -0.4 81
2019-02-16 03:00:00 6.8 6 Sudoeste 11 Sudoeste 0 1026.4 0.5 76
2019-02-16 02:00:00 7.3 5 Sudoeste 9 Oeste 0 1026.4 0.3 70
2019-02-16 01:00:00 7.5 2 Sudoeste 8 Sudoeste 0 1026.2 0.3 70
2019-02-16 00:00:00 8.3 6 Sudoeste 13 Sudoeste 0 1025.9 0.2 64
2019-02-15 23:00:00 9 6 Sudoeste 9 Sudoeste 0 1026.1 0.6 58
2019-02-15 22:00:00 9.9 8 Sudoeste 13 Sudoeste 0 1025.9 0.8 58
2019-02-15 21:00:00 10.9 7 Sudoeste 11 Sudoeste 0 1025.7 1.1 56
2019-02-15 20:00:00 12.5 7 Oeste 9 Oeste 0 1025.5 1.1 51
2019-02-15 19:00:00 15.4 4 Sudoeste 8 Oeste 0 1025.1 0.7 44
2019-02-15 18:00:00 18.7 6 Norte 13 Nordeste 0 1024.6 0.2 33
2019-02-15 17:00:00 19.8 10 Norte 15 Norte 0 1024.4 -0.5 28
2019-02-15 16:00:00 20.3 10 Norte 17 Norte 0 1024.4 -1 27
2019-02-15 15:00:00 20.3 9 Norte 15 Norte 0 1024.4 -1.3 29
2019-02-15 14:00:00 22.5 9 Norte 17 Nordeste 0 1024.9 -0.8 18
2019-02-15 13:00:00 23 11 Sudeste 22 Sur 0 1025.4 0 13
2019-02-15 12:00:00 21.6 15 Sudeste 22 Sudeste 0 1025.7 0.3 15
2019-02-15 11:00:00 20 10 Sur 17 Sur 0 1025.7 0.8 18
2019-02-15 10:00:00 14.3 10 Sur 17 Sur 0 1025.4 0.8 38
2019-02-15 09:00:00 10.1 4 Sudoeste 11 Sur 0 1025.4 1.2 50
2019-02-15 08:00:00 10.7 5 Sudoeste 22 Sur 0 1024.9 0.7 42
2019-02-15 07:00:00 16.2 18 Sur 28 Sur 0 1024.6 0.3 21
2019-02-15 06:00:00 16.3 20 Sur 32 Sur 0 1024.2 -0.2 21
2019-02-15 05:00:00 17.1 19 Sur 28 Sur 0 1024.2 -0.4 19
2019-02-15 04:00:00 17.3 19 Sur 30 Sur 0 1024.3 -0.4 17
2019-02-15 03:00:00 17.1 23 Sur 33 Sur 0 1024.4 -0.4 18
2019-02-15 02:00:00 17.3 18 Sur 30 Sur 0 1024.6 -0.5 16
2019-02-15 01:00:00 16.6 17 Sur 30 Sur 0 1024.7 -0.7 18
2019-02-15 00:00:00 13.3 13 Sur 24 Sur 0 1024.8 -0.6 29
2019-02-14 23:00:00 11.3 14 Sur 22 Sudeste 0 1025.1 -0.3 45
2019-02-14 22:00:00 10.3 4 Oeste 9 Sudeste 0 1025.4 0 60
2019-02-14 21:00:00 13.7 5 Oeste 21 Sudeste 0 1025.4 0.3 42
2019-02-14 20:00:00 18.8 14 Sudeste 26 Sudeste 0 1025.4 0.1 23
2019-02-14 19:00:00 19.5 15 Este 22 Sudeste 0 1025.4 0 22
2019-02-14 18:00:00 21 14 Sudeste 24 Sudeste 0 1025.1 -0.6 21
2019-02-14 17:00:00 22.4 15 Sudeste 32 Sudeste 0 1025.3 -1.1 19
2019-02-14 16:00:00 22.6 12 Sudeste 26 Sur 0 1025.4 -1.8 19
2019-02-14 15:00:00 22.1 20 Sur 33 Sur 0 1025.7 -2 21
2019-02-14 14:00:00 21.7 23 Sur 48 Sudeste 0 1026.4 -1.5 19
2019-02-14 13:00:00 21.3 18 Sur 30 Sur 0 1027.2 -0.7 21
2019-02-14 12:00:00 20.3 13 Sudeste 22 Sudeste 0 1027.7 -0.1 24
2019-02-14 11:00:00 18.4 15 Sudeste 28 Sudeste 0 1027.9 0.5 31
2019-02-14 10:00:00 16.3 14 Sudeste 22 Sur 0 1027.9 0.6 38
2019-02-14 09:00:00 10.5 9 Sur 22 Sur 0 1027.8 0.3 58
2019-02-14 08:00:00 12.9 9 Sudoeste 28 Sur 0 1027.4 0 41
2019-02-14 07:00:00 10.4 14 Sur 21 Sudoeste 0 1027.3 -0.5 53
2019-02-14 06:00:00 5.5 4 Oeste 15 Sur 0 1027.5 -0.6 87
2019-02-14 05:00:00 5.1 4 Oeste 9 Noroeste 0 1027.4 -0.9 89
2019-02-14 04:00:00 5.5 5 Sudoeste 13 Sur 0 1027.8 -0.7 90
2019-02-14 03:00:00 5.4 5 Oeste 9 Sudoeste 0 1028.1 -0.5 91
2019-02-14 02:00:00 5.6 6 Sudoeste 9 Sur 0 1028.3 -0.3 90
2019-02-14 01:00:00 6 4 Sudoeste 9 Sudoeste 0 1028.5 0 89
2019-02-14 00:00:00 6.5 7 Sudoeste 9 Sudoeste 0 1028.6 0.1 88
2019-02-13 23:00:00 7.3 6 Sudoeste 9 Sudoeste 0 1028.6 0.3 86
2019-02-13 22:00:00 7.9 6 Sudoeste 9 Sudoeste 0 1028.5 0.5 85
2019-02-13 21:00:00 9.6 6 Sudoeste 8 Sudoeste 0 1028.5 0.7 81
2019-02-13 20:00:00 10.6 7 Sur 9 Sur 0 1028.3 0.4 77
2019-02-13 19:00:00 13.2 0 Calma 9 Norte 0 1028 0 67
2019-02-13 18:00:00 15.8 6 Norte 9 Norte 0 1027.8 -0.5 53
2019-02-13 17:00:00 15.7 5 Norte 9 Norte 0 1027.9 -0.8 50
2019-02-13 16:00:00 14.7 8 Norte 13 Nordeste 0 1028 -1.4 63
2019-02-13 15:00:00 14.5 9 Norte 15 Nordeste 0 1028.3 -1.5 63
2019-02-13 14:00:00 13.6 12 Norte 17 Nordeste 0 1028.7 -1.1 65
2019-02-13 13:00:00 12.6 10 Norte 13 Norte 0 1029.4 -0.6 73
2019-02-13 12:00:00 12.2 7 Norte 11 Nordeste 0 1029.8 -0.2 71
2019-02-13 11:00:00 10 2 Este 11 Sur 0 1029.8 -0.1 75
2019-02-13 10:00:00 6.1 9 Sur 18 Sudeste 0 1030 0 90
2019-02-13 09:00:00 4.5 5 Sudoeste 9 Sur 0 1030 0 95
2019-02-13 08:00:00 -- -- -- -- -- 0 1029.9 -0.2 --
2019-02-13 07:00:00 3.8 5 Sur 9 Sur 0 1030 -0.4 94
2019-02-13 06:00:00 3.9 5 Sudoeste 9 Sur 0 1030 -1 94
2019-02-13 05:00:00 3.6 8 Sur 9 Sur 0 1030.1 -1.1 93
2019-02-13 04:00:00 4.3 6 Sudoeste -- -- 0 1030.4 -1 94
2019-02-13 03:00:00 4.5 6 Sur 8 Sur 0 1031 -0.6 92
2019-02-13 02:00:00 5.1 3 Oeste 8 Sur 0 1031.2 -0.7 89
2019-02-13 01:00:00 6.1 5 Sur 8 Sur 0 1031.4 -0.8 87
2019-02-13 00:00:00 7.5 4 Sudeste 11 Sudeste 0 1031.6 -0.2 86
2019-02-12 23:00:00 8.3 7 Sudeste 13 Sudeste 0 1031.9 0.1 84
2019-02-12 22:00:00 8.6 3 Sudoeste 8 Norte 0 1032.2 0.6 80
2019-02-12 21:00:00 9.8 0 Calma 9 Norte 0 1031.8 0.4 76
2019-02-12 20:00:00 10.9 3 Norte 9 Nordeste 0 1031.8 0.3 70
2019-02-12 19:00:00 12.9 8 Nordeste 18 Este 0 1031.6 -0.2 62
2019-02-12 18:00:00 14.3 16 Este 26 Este 0 1031.4 -0.6 56
2019-02-12 17:00:00 14.9 19 Este 26 Este 0 1031.5 -1 53
2019-02-12 16:00:00 14.9 23 Nordeste 30 Nordeste 0 1031.8 -1.6 52
2019-02-12 15:00:00 14.8 18 Nordeste 26 Nordeste 0 1032 -2.1 55
2019-02-12 14:00:00 14.6 12 Nordeste 22 Este 0 1032.5 -1.7 54
2019-02-12 13:00:00 13.8 15 Este 26 Este 0 1033.4 -0.9 57
2019-02-12 12:00:00 12.8 15 Nordeste 26 Este 0 1034.1 -0.4 65
2019-02-12 11:00:00 10.3 4 Sur 8 Sur 0 1034.2 0.1 76
2019-02-12 10:00:00 7.6 3 Sur 9 Sur 0 1034.3 0.4 93
2019-02-12 09:00:00 5.5 5 Sur 11 Sur 0 1034.5 0.7 97
2019-02-12 08:00:00 5.1 8 Sur 9 Sur 0 1034.1 0.6 97
2019-02-12 07:00:00 5.6 6 Sur 11 Sur 0 1033.9 0.6 96
2019-02-12 06:00:00 6.5 7 Sur 11 Sur 0 1033.8 0.3 96
2019-02-12 05:00:00 6.4 5 Sur 8 Sur 0 1033.5 -0.4 94
2019-02-12 04:00:00 7.8 3 Sudoeste 8 Sudoeste 0 1033.3 -0.8 94
2019-02-12 03:00:00 8.6 6 Sudoeste 9 Oeste 0 1033.5 -0.6 95
2019-02-12 02:00:00 8.2 4 Sudoeste -- -- 0 1033.9 -0.2 94
2019-02-12 01:00:00 8.6 4 Sudoeste -- -- 0 1034.1 0.2 93
2019-02-12 00:00:00 8.5 5 Sudoeste -- -- 0 1034.1 0.4 93
2019-02-11 23:00:00 8.2 5 Sudoeste 8 Sudoeste 0 1034.1 0.9 92
2019-02-11 22:00:00 8.7 5 Sudoeste 9 Sur 0 1033.9 1.2 89
2019-02-11 21:00:00 9.3 5 Sur 8 Sur 0 1033.7 1.4 87
2019-02-11 20:00:00 10 6 Sudoeste 8 Sur 0 1033.2 1.1 81
2019-02-11 19:00:00 12.2 6 Noroeste 15 Noroeste 0 1032.7 1.1 72
2019-02-11 18:00:00 13 9 Noroeste 18 Norte 0 1032.3 0.9 70
2019-02-11 17:00:00 14 10 Noroeste 18 Norte 0 1032.1 0.8 67
2019-02-11 16:00:00 14.8 9 Noroeste 26 Noroeste 0 1031.6 0.1 66
2019-02-11 15:00:00 14.2 9 Oeste 21 Oeste 0 1031.4 -0.1 70
2019-02-11 14:00:00 12.9 8 Noroeste 26 Norte 0.1 1031.3 0.4 74
2019-02-11 13:00:00 13.2 10 Norte 21 Oeste 0 1031.5 1.5 74
2019-02-11 12:00:00 12.5 9 Oeste 18 Oeste 0 1031.5 2.2 73
2019-02-11 11:00:00 11.7 6 Oeste 18 Sudoeste 0 1030.9 2.4 81
2019-02-11 10:00:00 10.8 8 Oeste 24 Noroeste 1 1030 2.1 80
2019-02-11 09:00:00 10.9 11 Sudoeste 18 Oeste 0 1029.3 2 83
2019-02-11 08:00:00 10.8 4 Oeste 26 Oeste 0.7 1028.5 1.4 80
2019-02-11 07:00:00 11.6 13 Oeste 26 Oeste 0 1027.9 0.8 74
2019-02-11 06:00:00 11.4 8 Oeste 24 Oeste 0 1027.3 0.4 78
2019-02-11 05:00:00 11.3 13 Oeste 28 Noroeste 0 1027.1 0.7 77
2019-02-11 04:00:00 11 13 Oeste 30 Oeste 0.1 1027.1 1.3 80
2019-02-11 03:00:00 10.6 7 Oeste 63 Norte 0.3 1026.9 1.3 80
2019-02-11 02:00:00 11.7 18 Oeste 35 Oeste 0 1026.4 1.3 72
2019-02-11 01:00:00 11.9 20 Noroeste 37 Oeste 0.6 1025.8 1.2 72
2019-02-11 00:00:00 12.2 19 Oeste 41 Oeste 0 1025.6 1.3 68
2019-02-10 23:00:00 12.1 18 Oeste 30 Oeste 0 1025.1 1.2 66
2019-02-10 22:00:00 12 16 Oeste 30 Oeste 0 1024.6 1.5 70
2019-02-10 21:00:00 12.3 14 Oeste 28 Oeste 0 1024.3 2 65
2019-02-10 20:00:00 12.2 13 Oeste 32 Noroeste 0 1023.9 2.2 65
2019-02-10 19:00:00 12.7 15 Oeste 28 Oeste 0 1023.1 1.9 68
2019-02-10 18:00:00 11.9 13 Oeste 28 Sudoeste 0 1022.3 2.1 84
2019-02-10 17:00:00 12.2 19 Sudoeste 42 Sudoeste 0.1 1021.7 2.2 79
2019-02-10 16:00:00 11.9 16 Oeste 37 Sudoeste 0.9 1021.2 2.1 82
2019-02-10 15:00:00 12.5 23 Sudoeste 39 Oeste 0.1 1020.2 2 83
2019-02-10 14:00:00 12.5 21 Sudoeste 50 Sudoeste 0.4 1019.5 3.1 86
2019-02-10 13:00:00 12.6 33 Oeste 58 Sudoeste 0.4 1019.1 6.3 84
2019-02-10 12:00:00 12 26 Oeste 61 Noroeste 3.5 1018.2 7.3 86
2019-02-10 11:00:00 16.2 32 Oeste 58 Noroeste 0.9 1016.4 5.2 69
2019-02-10 10:00:00 17 33 Sudoeste 46 Sudoeste 0 1012.8 1.9 54
2019-02-10 09:00:00 15.7 25 Sudoeste 45 Sudoeste 0.1 1010.9 0.2 63
2019-02-10 08:00:00 15.9 34 Sudoeste 46 Sudoeste 0 1011.2 -0.3 60
2019-02-10 07:00:00 17.4 25 Sudoeste 41 Sudoeste 0 1010.9 -1.6 44
2019-02-10 06:00:00 16.6 26 Sudoeste 50 Sur 0 1010.7 -3 45
2019-02-10 05:00:00 15.8 27 Sur 41 Sudoeste 0 1011.5 -1.9 47
2019-02-10 04:00:00 16.3 24 Sur 46 Sur 0 1012.5 -1.2 44
2019-02-10 03:00:00 16 23 Sur 45 Sudoeste 0 1013.7 -0.2 46
2019-02-10 02:00:00 16.3 35 Sur 50 Sur 0 1013.4 -1.3 48
2019-02-10 01:00:00 16.2 23 Sur 32 Sur 0 1013.7 -1 48
2019-02-10 00:00:00 13.5 4 Oeste 15 Oeste 0 1013.9 -0.7 62
2019-02-09 23:00:00 15.3 9 Sudoeste 18 Sudoeste 0 1014.7 -0.1 54
2019-02-09 22:00:00 15 10 Sudoeste 15 Sudoeste 0 1014.7 -0.1 56
2019-02-09 21:00:00 14.2 4 Sur 8 Sur 0 1014.6 -0.4 66
2019-02-09 20:00:00 16.3 0 Calma 17 Sudoeste 0 1014.8 -0.9 53
2019-02-09 19:00:00 16.1 3 Este 21 Sur 0 1014.8 -1.6 55
2019-02-09 18:00:00 15.8 3 Noroeste 15 Norte 0 1015 -2.1 68
2019-02-09 17:00:00 16.6 7 Noroeste 15 Nordeste 0 1015.7 -2.4 64
2019-02-09 16:00:00 15.9 10 Norte 15 Norte 0 1016.4 -2.9 69
2019-02-09 15:00:00 16.6 11 Norte 15 Norte 0 1017.1 -3.1 60
2019-02-09 14:00:00 16.2 9 Norte 21 Norte 0 1018.1 -2.4 64
2019-02-09 13:00:00 16.6 9 Nordeste 9 Nordeste 0 1019.3 -1.1 61
2019-02-09 12:00:00 15.5 0 Calma 8 Sur 0 1020.2 0.2 58
2019-02-09 11:00:00 12.6 2 Oeste -- -- 0 1020.5 1 74
2019-02-09 10:00:00 9.7 4 Sur 9 Sur 0 1020.4 1 84
2019-02-09 09:00:00 7.3 7 Sudoeste 9 Sudoeste 0 1020 0.8 92
2019-02-09 08:00:00 7.2 5 Sudoeste 9 Sudoeste 0 1019.5 0.3 90
2019-02-09 07:00:00 7.4 7 Sudoeste 13 Sudoeste 0 1019.4 0.1 91
2019-02-09 06:00:00 8.5 8 Sudoeste 11 Sudoeste 0 1019.2 0 88
2019-02-09 05:00:00 8.1 8 Sudoeste 13 Sur 0 1019.2 0.3 88
2019-02-09 04:00:00 9.5 9 Sudoeste 11 Sudoeste 0 1019.3 0.6 83
2019-02-09 03:00:00 9.9 9 Sur 11 Sur 0 1019.2 0.8 83
2019-02-09 02:00:00 9.5 9 Sudoeste -- -- 0 1018.9 0.9 86
2019-02-09 01:00:00 9.3 8 Sudoeste 13 Sudoeste 0 1018.7 0.8 86
2019-02-09 00:00:00 9.6 7 Sudoeste 13 Sur 0 1018.4 0.6 88
2019-02-08 23:00:00 9.9 10 Sudoeste 13 Sur 0 1018 -0.2 87
2019-02-08 22:00:00 10.4 6 Sur 11 Sudeste 0 1017.9 0 87
2019-02-08 21:00:00 11 7 Sudeste 15 Sur 0 1017.8 0 85
2019-02-08 20:00:00 11.7 3 Norte 13 Sudoeste 0 1018.2 0.8 85
2019-02-08 19:00:00 12.4 11 Sur 17 Sur 0 1017.9 1 76
2019-02-08 18:00:00 14 8 Noroeste 17 Oeste 0 1017.8 0.9 68
2019-02-08 17:00:00 15.7 10 Oeste 18 Oeste 0 1017.4 0.4 69
2019-02-08 16:00:00 16.2 10 Noroeste 18 Noroeste 0 1016.9 -0.9 72
2019-02-08 15:00:00 15.9 15 Norte 21 Noroeste 0 1016.9 -1.5 67
2019-02-08 14:00:00 15.9 10 Norte 13 Norte 0 1017 -1.9 65
2019-02-08 13:00:00 15.8 10 Norte 13 Norte 0 1017.8 -1.6 63
2019-02-08 12:00:00 15.4 3 Noroeste 5 Noroeste 0 1018.4 -0.8 62
2019-02-08 11:00:00 13.3 3 Sudoeste 8 Sudoeste 0 1018.9 -0.4 69
2019-02-08 10:00:00 9.1 5 Sudoeste 8 Sudoeste 0 1019.4 -0.3 92
2019-02-08 09:00:00 5.4 5 Oeste 9 Sudoeste 0 1019.2 -0.8 95
2019-02-08 08:00:00 5.3 7 Sur 9 Sudoeste 0 1019.3 -1.4 95
2019-02-08 07:00:00 5.2 9 Sur 9 Sur 0 1019.7 -1.7 95
2019-02-08 06:00:00 5.7 6 Sudoeste 9 Oeste 0 1020 -2.2 95
2019-02-08 05:00:00 5.4 6 Sudoeste 11 Sudoeste 0 1020.7 -2 96
2019-02-08 04:00:00 5.7 4 Sudoeste 9 Oeste 0 1021.4 -1.9 95
2019-02-08 03:00:00 5.8 4 Sudoeste 9 Sudoeste 0 1022.2 -1.6 94
2019-02-08 02:00:00 6.6 5 Sudoeste 9 Sur 0 1022.7 -1.3 92
2019-02-08 01:00:00 6.8 9 Sur 11 Sur 0 1023.3 -1.2 94
2019-02-08 00:00:00 7.1 5 Sudoeste 8 Sudoeste 0 1023.8 -0.9 93
2019-02-07 23:00:00 7.5 5 Sudoeste 8 Sudoeste 0 1024 -0.8 92
2019-02-07 22:00:00 8.5 5 Sur 8 Sudoeste 0 1024.5 -0.3 91
2019-02-07 21:00:00 9.7 0 Calma 8 Sur 0 1024.7 0.1 88
2019-02-07 20:00:00 10.2 5 Sur 9 Sur 0 1024.8 0.2 88
2019-02-07 19:00:00 12.2 6 Sudoeste 13 Oeste 0 1024.8 0.2 79
2019-02-07 18:00:00 13.2 10 Oeste 17 Sudoeste 0 1024.6 0 73
2019-02-07 17:00:00 13.8 11 Oeste 28 Sudoeste 0 1024.6 0 70
2019-02-07 16:00:00 13.8 13 Sudoeste 28 Oeste 0 1024.6 0 74
2019-02-07 15:00:00 14.1 15 Oeste 32 Oeste 0 1024.6 0.2 75
2019-02-07 14:00:00 13.8 12 Oeste 24 Sudoeste 0 1024.6 0.3 77
2019-02-07 13:00:00 13.8 9 Oeste 30 Oeste 0 1024.6 0.8 82
2019-02-07 12:00:00 13.3 16 Oeste 32 Sudoeste 0.4 1024.4 1.4 84
2019-02-07 11:00:00 13.6 13 Sudoeste 24 Oeste 0.1 1024.3 2.1 79
2019-02-07 10:00:00 13.4 10 Oeste 22 Sudoeste 0 1023.8 2 79
2019-02-07 09:00:00 11.4 14 Sudoeste 21 Sudoeste 0 1023 1.4 86
2019-02-07 08:00:00 10.9 8 Sudoeste 13 Sur 0 1022.2 0.7 90
2019-02-07 07:00:00 10.8 10 Sur 13 Sur 0 1021.8 0 89
2019-02-07 06:00:00 11.5 7 Sur 13 Sur 0 1021.6 -0.2 89
2019-02-07 05:00:00 11.5 10 Sur 13 Sur 0 1021.5 -0.6 90
2019-02-07 04:00:00 11.6 10 Sur 13 Sur 0 1021.8 -0.3 91
2019-02-07 03:00:00 12.1 10 Sur 13 Sur 0 1021.8 0.3 90
2019-02-07 02:00:00 12.8 9 Sur -- -- -- 1022.1 1.6 87
2019-02-07 01:00:00 12.5 8 Sudoeste 18 Sudoeste 0 1022.1 1.9 90
2019-02-07 00:00:00 12.1 12 Sudoeste 22 Sudoeste 0 1021.5 1.5 92
2019-02-06 23:00:00 11.3 8 Sur 11 Sur 0 1020.5 0.3 95
2019-02-06 22:00:00 11.9 4 Sudoeste 9 Sur 0 1020.2 0.3 94
2019-02-06 21:00:00 12.2 8 Sur 9 Sur 0 1020 0.3 94
2019-02-06 20:00:00 13.2 3 Oeste 8 Norte 0 1020.2 0 89
2019-02-06 19:00:00 14.7 5 Norte 9 Norte 0 1019.9 -0.6 84
2019-02-06 18:00:00 16.4 6 Norte 9 Norte 0 1019.7 -1.5 79
2019-02-06 17:00:00 16.9 7 Norte 13 Norte 0 1020.2 -2 78
2019-02-06 16:00:00 17.2 8 Norte 18 Nordeste 0 1020.5 -2.7 75
2019-02-06 15:00:00 17.5 13 Nordeste 21 Nordeste 0 1021.2 -3.1 73
2019-02-06 14:00:00 17.6 10 Norte 15 Norte 0 1022.2 -3 72
2019-02-06 13:00:00 16.9 9 Este 17 Sudeste 0 1023.2 -2.6 74
2019-02-06 12:00:00 15.5 8 Sudeste 15 Este 0 1024.3 -1.8 84
2019-02-06 11:00:00 13.9 6 Sudeste 13 Este 0 1025.2 -1 98
2019-02-06 10:00:00 13.1 0 Calma 8 Sur 0 1025.8 -0.6 100
2019-02-06 09:00:00 11.9 3 Sudoeste 5 Oeste 0 1026.1 -0.7 100
2019-02-06 08:00:00 11.8 3 Sudeste 8 Sudeste 0 1026.2 -0.7 100
2019-02-06 07:00:00 11.8 6 Sudoeste 9 Oeste 0 1026.4 -0.9 100
2019-02-06 06:00:00 11.8 4 Oeste 5 Oeste 0 1026.8 -0.9 100
2019-02-06 05:00:00 11.7 0 Calma 4 Noroeste 0 1026.9 -1.3 100
2019-02-06 04:00:00 11.8 2 Este -- -- 0 1027.3 -1.2 100
2019-02-06 03:00:00 12 4 Sur 8 Sur 0 1027.7 -1 100
2019-02-06 02:00:00 12 -- -- -- -- -- 1028.2 -0.6 100
2019-02-06 01:00:00 12 4 Sur -- -- 0 1028.5 -0.4 100
2019-02-06 00:00:00 12.1 4 Sur 8 Sudoeste 0.2 1028.7 -0.2 100
2019-02-05 23:00:00 12.2 4 Sudoeste 9 Sudoeste 0.6 1028.8 -0.2 99
2019-02-05 22:00:00 12.3 6 Sudoeste -- -- 1.3 1028.9 0.1 99
2019-02-05 21:00:00 12.4 6 Sudoeste 9 Oeste 0.8 1028.9 0.1 98
2019-02-05 20:00:00 12.4 8 Sudoeste 13 Sudoeste 0.1 1029 0.3 98
2019-02-05 19:00:00 12.4 13 Sur 21 Sur 0.3 1028.8 0 98
2019-02-05 18:00:00 12.6 14 Sur 17 Sudoeste 1.1 1028.8 -0.1 97
2019-02-05 17:00:00 13 12 Sur 17 Sudoeste 0.2 1028.7 -0.4 96
2019-02-05 16:00:00 13.3 8 Sudoeste 21 Sudoeste 0 1028.8 -0.7 92
2019-02-05 15:00:00 13.2 12 Sudoeste 22 Sur 0.2 1028.9 -1 95
2019-02-05 14:00:00 13.2 11 Sudoeste 15 Sudoeste 0 1029.1 -0.3 96
2019-02-05 13:00:00 13.1 9 Oeste 15 Sudoeste 0.6 1029.5 0.7 96
2019-02-05 12:00:00 13.1 7 Sur 13 Sudoeste 0.7 1029.9 1.5 95
2019-02-05 11:00:00 13.1 3 Sudoeste 15 Sudoeste 0 1029.4 1.6 91
2019-02-05 10:00:00 12.3 8 Sudoeste 15 Sur 0 1028.8 1.4 93
2019-02-05 09:00:00 12.4 9 Sudoeste 22 Sudoeste 0.1 1028.4 1.1 90
2019-02-05 08:00:00 12.4 14 Sudoeste 30 Sudoeste 0 1027.8 0.6 89
2019-02-05 07:00:00 12.3 17 Sudoeste 28 Sudoeste 0 1027.4 -0.1 92
2019-02-05 06:00:00 11.8 12 Sudoeste 18 Sudoeste 0 1027.3 -0.3 96
2019-02-05 05:00:00 11.6 8 Oeste 22 Sudoeste 0.1 1027.2 -0.6 96
2019-02-05 04:00:00 11.4 12 Sudoeste 22 Sudoeste 0.2 1027.5 -0.6 97
2019-02-05 03:00:00 11.2 13 Sudoeste 21 Sudoeste 0.2 1027.6 -0.1 97
2019-02-05 02:00:00 11 9 Sudoeste -- -- -- 1027.8 0.2 97
2019-02-05 01:00:00 10.7 14 Sudoeste 26 Sudoeste 0.1 1028.1 0.6 96
2019-02-05 00:00:00 10.8 18 Sudoeste 26 Sudoeste 0 1027.7 0.2 95
2019-02-04 23:00:00 11 16 Sudoeste 24 Sudoeste 0 1027.6 0.6 94
2019-02-04 22:00:00 10.6 15 Sudoeste 24 Oeste 0.1 1027.5 0.6 94
2019-02-04 21:00:00 10.5 17 Sudoeste 28 Sudoeste 0 1027.5 0.6 91
2019-02-04 20:00:00 10.6 11 Sudoeste -- -- 0 1027 -0.1 88
2019-02-04 19:00:00 10.5 8 Sur 9 Sur 0.3 1026.9 0.3 88
2019-02-04 18:00:00 11.3 4 Sudoeste 13 Noroeste 0.5 1026.9 0.6 80
2019-02-04 17:00:00 12.4 8 Oeste 18 Oeste 0.2 1027.1 0.4 65
2019-02-04 16:00:00 13.3 10 Oeste 17 Sudoeste 0 1026.6 -0.6 54
2019-02-04 15:00:00 12.7 0 Calma 5 Sur 0 1026.3 -1.5 57
2019-02-04 14:00:00 11.7 4 Sudeste 8 Sudeste 0 1026.7 -1.7 62
2019-02-04 13:00:00 10.2 4 Sudeste 5 Sudeste 0 1027.2 -1.2 63
2019-02-04 12:00:00 8.6 3 Sur 8 Sudoeste 0 1027.8 -0.5 66
2019-02-04 11:00:00 7.1 5 Sur 9 Sudoeste -- 1028.4 -0.1 79
2019-02-04 10:00:00 4.7 7 Sur 11 Sur -- 1028.4 -0.3 93
2019-02-04 09:00:00 2.9 3 Sudoeste 17 Sudeste 0 1028.3 -0.7 97
2019-02-04 08:00:00 2.3 9 Sur 11 Sur 0 1028.5 -1.2 96
2019-02-04 07:00:00 3.4 9 Sudeste 17 Sudeste 0 1028.7 -1.3 97
2019-02-04 06:00:00 3.7 11 Sudeste 13 Sur 0 1029 -1.8 97
2019-02-04 05:00:00 3.1 8 Sur 11 Sur 0 1029.7 -0.8 97
2019-02-04 04:00:00 4.3 6 Sur 13 Sudeste 0 1030 -0.7 97
2019-02-04 03:00:00 4.5 10 Sur 11 Sur 0 1030.8 0.1 97
2019-02-04 02:00:00 4.7 8 Sur -- -- -- 1030.5 -0.4 95
2019-02-04 01:00:00 5.9 7 Sur 13 Sur 0 1030.7 0.2 93
2019-02-04 00:00:00 6.8 12 Sur 15 Sur 1.5 1030.7 0.1 91
2019-02-03 23:00:00 7.1 2 Sur 17 Sudeste 0 1030.9 0.7 84
2019-02-03 22:00:00 6.5 9 Sur 15 Sur 0 1030.5 1 86
2019-02-03 21:00:00 6.4 10 Sur 13 Sur 0 1030.6 1.8 88
2019-02-03 20:00:00 7.8 7 Sudoeste 13 Oeste 0 1030.2 1.4 81
2019-02-03 19:00:00 8 10 Sudoeste 17 Sudoeste 0 1029.5 0.7 79
2019-02-03 18:00:00 9 7 Sudoeste 15 Oeste 0 1028.8 0.1 73
2019-02-03 17:00:00 9.5 12 Oeste 17 Oeste 0 1028.8 0.2 71
2019-02-03 16:00:00 10.3 9 Oeste 13 Oeste 0 1028.8 -0.2 66
2019-02-03 15:00:00 9.8 8 Noroeste 15 Noroeste 0 1028.7 -0.3 66
2019-02-03 14:00:00 10.4 3 Noroeste 15 Oeste 0 1028.6 0.4 63
2019-02-03 13:00:00 9.1 10 Oeste 13 Sudoeste 0 1029 1.3 71
2019-02-03 12:00:00 7.1 6 Sudeste 15 Sudeste 0 1029 2.3 77
2019-02-03 11:00:00 6.2 6 Sur 13 Oeste 1.1 1028.2 2.6 95
2019-02-03 10:00:00 4.7 3 Norte 15 Sudeste 0 1027.7 3.2 92
2019-02-03 09:00:00 3.5 7 Sur 15 Sudoeste 0 1026.7 3.1 93
2019-02-03 08:00:00 3.8 6 Este 11 Nordeste 0.1 1025.6 2.6 93
2019-02-03 07:00:00 4.1 6 Sur 45 Nordeste 0.5 1024.5 2 90
2019-02-03 06:00:00 4.8 9 Sur 15 Sudeste 0.5 1023.6 1.1 90
2019-02-03 05:00:00 3.9 2 Sudoeste 11 Sudoeste 0.2 1023 1.8 92
2019-02-03 04:00:00 3.8 3 Sudoeste 13 Oeste 0.2 1022.5 1.5 89
2019-02-03 03:00:00 4.7 6 Oeste 17 Oeste 0.8 1022.5 3.5 84
2019-02-03 02:00:00 5.1 3 Sudoeste -- -- -- 1021.2 3.2 87
2019-02-03 01:00:00 5.6 6 Sudeste 33 Nordeste 1 1021 4.2 84
2019-02-03 00:00:00 9 32 Nordeste 48 Norte 0 1019 2.6 66
2019-02-02 23:00:00 9.4 27 Norte 52 Norte 0 1018 2.2 59
2019-02-02 22:00:00 9.3 20 Noroeste 55 Noroeste 0 1016.8 1.7 69
2019-02-02 21:00:00 8.9 23 Noroeste 42 Noroeste 0 1016.4 2.6 70
2019-02-02 20:00:00 8 14 Noroeste 46 Noroeste 0 1015.8 2.5 79
2019-02-02 19:00:00 9 23 Noroeste 50 Noroeste 0 1015.1 2.5 70
2019-02-02 18:00:00 9.4 29 Noroeste 59 Norte 0 1013.8 2.2 68
2019-02-02 17:00:00 8.2 24 Noroeste 55 Norte 2.4 1013.3 2.5 72
2019-02-02 16:00:00 10.8 23 Norte 50 Noroeste 0 1012.6 2.8 53
2019-02-02 15:00:00 10.6 22 Noroeste 46 Norte 0 1011.6 3.1 57
2019-02-02 14:00:00 10.9 26 Noroeste 50 Norte 0 1010.8 3.5 56
2019-02-02 13:00:00 9.7 31 Noroeste 54 Norte 0.1 1009.8 5 63
2019-02-02 12:00:00 8.8 29 Noroeste 58 Noroeste 1 1008.5 5.3 76
2019-02-02 11:00:00 8.1 24 Noroeste 65 Noroeste 0 1007.3 7 82
2019-02-02 10:00:00 8.7 25 Noroeste 67 Noroeste 1.2 1004.8 6.5 83
2019-02-02 09:00:00 9.1 30 Oeste 68 Oeste 0 1003.2 6.1 79
2019-02-02 08:00:00 9.6 29 Noroeste 71 Norte 0.4 1000.3 4.7 82
2019-02-02 07:00:00 10.4 27 Noroeste 54 Norte 1.2 998.3 3.8 82
2019-02-02 06:00:00 9.4 27 Noroeste 42 Oeste 0.8 997.1 3.5 91
2019-02-02 05:00:00 8.5 8 Oeste 33 Norte 4.7 995.6 2.7 96
2019-02-02 04:00:00 8.6 21 Sudoeste 32 Sudoeste 0.1 994.5 2.8 93
2019-02-02 03:00:00 8 8 Oeste 22 Sudoeste 0.1 993.6 2.3 97
2019-02-02 02:00:00 7.4 10 Sudoeste -- -- -- 992.9 2.2 97
2019-02-02 01:00:00 7.5 13 Sudoeste 22 Sudoeste 1.9 991.7 2.2 95
2019-02-02 00:00:00 7.9 15 Sudoeste 21 Sudoeste 0.3 991.3 2.5 94
2019-02-01 23:00:00 8.1 14 Sudoeste 26 Oeste 4.6 990.7 2.7 89
2019-02-01 22:00:00 8.6 7 Sudoeste 18 Oeste 0.1 989.5 2.1 83
2019-02-01 21:00:00 8.9 11 Sudoeste 26 Oeste 0 988.8 2.5 76
2019-02-01 20:00:00 8.2 11 Sudoeste 22 Sur 0 988 2.7 81
2019-02-01 19:00:00 8.3 18 Sur 48 Noroeste 2.4 987.4 2.8 87
2019-02-01 18:00:00 10 22 Oeste 52 Sudoeste 0.6 986.3 1.9 84
2019-02-01 17:00:00 10.3 15 Sudoeste 42 Oeste 2.2 985.3 0.1 81
2019-02-01 16:00:00 14.3 22 Oeste 41 Oeste 0 984.6 -1.4 51
2019-02-01 15:00:00 15.1 16 Sudoeste 48 Sudoeste 0 984.4 -2.7 45
2019-02-01 14:00:00 15.2 25 Sudoeste 46 Sudoeste 0 985.2 -1.1 43
2019-02-01 13:00:00 14.8 23 Sudoeste 46 Sudoeste 0 986 0.3 45
2019-02-01 12:00:00 15 30 Sudoeste 46 Oeste 0 987.1 1.5 44
2019-02-01 11:00:00 15 26 Sudoeste 48 Sudoeste 0 986.3 0.3 47
2019-02-01 10:00:00 13.7 30 Sudoeste 52 Sudoeste 0 985.7 -0.4 51
2019-02-01 09:00:00 11.6 30 Sudoeste 48 Sur 0 985.6 -1.8 75
2019-02-01 08:00:00 7.4 8 Sudoeste 15 Sudoeste 0 986 -2.4 99
2019-02-01 07:00:00 8.5 8 Sur 15 Sur 0 986.1 -3.4 99
2019-02-01 06:00:00 9.4 10 Sudeste 17 Sudeste 0 987.4 -2.8 99
2019-02-01 05:00:00 10.4 6 Sudoeste 13 Sudoeste 0.7 988.4 -2.4 99
2019-02-01 04:00:00 10.6 5 Sudoeste 9 Sur 0.5 989.5 -2.2 99
2019-02-01 03:00:00 10.7 0 Calma 9 Sudoeste 0.7 990.2 -1.9 99
2019-02-01 02:00:00 11 9 Sudeste -- -- -- 990.8 -2 99
2019-02-01 01:00:00 11.1 9 Sur 11 Sur 0 991.7 -1.3 99
2019-02-01 00:00:00 11.1 5 Sur 13 Sur 0.3 992.1 -0.9 99
2019-01-31 23:00:00 11.2 6 Sur 15 Sudoeste 2 992.8 -0.3 99
2019-01-31 22:00:00 11.4 13 Sudoeste 22 Sur 3.3 993 0.6 99
2019-01-31 21:00:00 11.5 15 Sudoeste 30 Sudoeste 6.7 993 2.8 99
2019-01-31 20:00:00 11.8 12 Sudoeste 32 Oeste 7.7 993.1 2.4 99
2019-01-31 19:00:00 12.1 20 Oeste 42 Oeste 15.9 992.4 1.4 96
2019-01-31 18:00:00 13.8 9 Nordeste 18 Norte 0.6 990.2 -1.3 94
2019-01-31 17:00:00 14.6 9 Norte 22 Nordeste 0 990.7 -1.6 88
2019-01-31 16:00:00 17.1 15 Nordeste 26 Oeste 0 991 -2 74
2019-01-31 15:00:00 18.2 19 Oeste 28 Sudoeste 0 991.5 -2.2 65
2019-01-31 14:00:00 17 16 Sudoeste 22 Sudoeste 0.1 992.3 -1.2 73
2019-01-31 13:00:00 15.4 11 Sudoeste 33 Sudoeste 0.5 993 -0.6 80
2019-01-31 12:00:00 15.6 18 Sudoeste 28 Sudoeste 0 993.7 -0.4 74
2019-01-31 11:00:00 14.1 18 Sudoeste 28 Sudoeste 0 993.5 -0.2 81
2019-01-31 10:00:00 12.8 18 Sudoeste 30 Sudoeste 0.7 993.6 -0.1 88
2019-01-31 09:00:00 11.5 17 Sudoeste 32 Sudoeste 3.1 994.1 0 93
2019-01-31 08:00:00 11.5 16 Sudoeste 28 Sudoeste 3.6 993.7 -0.5 92
2019-01-31 07:00:00 11.3 19 Sudoeste 28 Oeste 1.9 993.7 -2 90
2019-01-31 06:00:00 10.9 15 Sur 24 Sudoeste 0.7 994.1 -2.4 87
2019-01-31 05:00:00 10.7 13 Sudoeste 21 Oeste 0.5 994.2 -3.3 85
2019-01-31 04:00:00 10 15 Sudoeste 24 Sudoeste 0.7 995.7 -2.8 86
2019-01-31 03:00:00 9.7 16 Sudoeste 30 Sudoeste 0.8 996.5 -3 83
2019-01-31 02:00:00 9.6 14 Sur -- -- -- 997.5 -2.6 83
2019-01-31 01:00:00 9.6 17 Sudoeste 28 Sudoeste 0.7 998.5 -1.5 82
2019-01-31 00:00:00 10.1 12 Sudoeste 22 Sudoeste 0.9 999.5 -1.5 84
2019-01-30 23:00:00 11.2 18 Sudoeste 32 Sudoeste 0.2 1000.1 -1.7 73
2019-01-30 22:00:00 9.5 14 Sur 22 Sur 0 1000 -2.9 78
2019-01-30 21:00:00 8.7 9 Sur 11 Sur 0 1001 -2.6 83
2019-01-30 20:00:00 8.6 6 Sudoeste 9 Sudoeste 0 1001.8 -2.9 85
2019-01-30 19:00:00 9.5 4 Sudoeste 8 Sudoeste 0 1002.9 -2.9 79
2019-01-30 18:00:00 11.2 6 Sur 13 Sudoeste 0 1003.6 -3.3 67
2019-01-30 17:00:00 12.6 12 Sudoeste 21 Sudoeste 0 1004.7 -3.3 58
2019-01-30 16:00:00 12.5 14 Sudoeste 24 Oeste 0 1005.8 -3.4 60
2019-01-30 15:00:00 11.7 9 Noroeste 21 Norte 0 1006.9 -3.6 75
2019-01-30 14:00:00 10 10 Sudoeste 17 Sudoeste 0 1008 -2 83
2019-01-30 13:00:00 8 15 Sudoeste 42 Sudoeste 0.5 1009.2 -0.9 88
2019-01-30 12:00:00 7.8 22 Oeste 33 Oeste 3.2 1010.5 0 85
2019-01-30 11:00:00 7.6 19 Sudoeste 33 Sudoeste 0.3 1010 0.2 87
2019-01-30 10:00:00 7.3 24 Sudoeste 35 Sudoeste 1.1 1010.1 0.5 88
2019-01-30 09:00:00 7.2 17 Oeste 26 Oeste 3.8 1010.5 0.4 90
2019-01-30 08:00:00 7.7 20 Sudoeste 35 Sudoeste 1.3 1009.8 0.2 87
2019-01-30 07:00:00 8.1 20 Sudoeste 32 Sudoeste 2.9 1009.6 -0.8 86
2019-01-30 06:00:00 8.3 20 Sudoeste 46 Sudoeste 0.8 1010.1 0.1 83
2019-01-30 05:00:00 10.5 14 Oeste 35 Noroeste 0 1009.6 -0.4 69
2019-01-30 04:00:00 10.3 22 Oeste 48 Noroeste 0 1010.4 0.3 68
2019-01-30 03:00:00 11 19 Oeste 39 Oeste 0 1010 0.1 61
2019-01-30 02:00:00 10.9 27 Noroeste 54 Noroeste 0 1010 0.2 59
2019-01-30 01:00:00 10.3 27 Oeste 55 Oeste 0 1010.1 0.9 66
2019-01-30 00:00:00 8.7 23 Oeste 74 Oeste 0.2 1009.9 1.3 76
2019-01-29 23:00:00 9 21 Oeste 72 Oeste 0.5 1009.8 2.6 69
2019-01-29 22:00:00 9.5 33 Oeste 84 Oeste 0.2 1009.2 2.5 72
2019-01-29 21:00:00 11.5 45 Oeste 74 Oeste 0 1008.6 2.8 65
2019-01-29 20:00:00 11.3 39 Oeste 72 Oeste 0.1 1007.2 2.2 73
2019-01-29 19:00:00 11.2 36 Oeste 63 Noroeste 0.1 1006.7 2 78
2019-01-29 18:00:00 11.4 39 Sudoeste 67 Sudoeste 1.1 1005.8 2.2 75
2019-01-29 17:00:00 13 33 Sudoeste 71 Oeste 0 1005 0.5 73
2019-01-29 16:00:00 11.9 33 Oeste 63 Sudoeste 3.8 1004.7 -0.9 82
2019-01-29 15:00:00 11.2 25 Sudoeste 39 Sudoeste 0.6 1003.6 -3.5 80
2019-01-29 14:00:00 11.3 24 Sudoeste 35 Sudoeste 1.2 1004.5 -4.3 80
2019-01-29 13:00:00 11.6 18 Sudoeste 28 Sudoeste 0 1005.6 -4.2 78
2019-01-29 12:00:00 11.1 15 Sudoeste 21 Sudoeste 0 1007.1 -3.8 81
2019-01-29 11:00:00 9.9 14 Sudoeste 21 Sudoeste 0.7 1008.8 -3.1 88
2019-01-29 10:00:00 9.4 9 Sudoeste 13 Sudoeste 0.1 1009.8 -3.3 92
2019-01-29 09:00:00 9 6 Sur 15 Sudoeste 0.1 1010.9 -2.8 94
2019-01-29 08:00:00 9 14 Sudoeste 22 Sudoeste 0.1 1011.9 -2.4 94
2019-01-29 07:00:00 9 11 Sudoeste 21 Sudoeste 0.9 1013.1 -1.8 93
2019-01-29 06:00:00 9.2 15 Sudoeste 26 Sudoeste 0.9 1013.7 -1.8 91
2019-01-29 05:00:00 9.8 14 Sudoeste 24 Sudoeste 0.3 1014.3 -1.5 88
2019-01-29 04:00:00 10.9 5 Oeste 26 Noroeste 0 1014.9 -2 74
2019-01-29 03:00:00 10.4 7 Oeste 15 Oeste 0 1015.5 -1.5 78
2019-01-29 02:00:00 10.3 10 Noroeste 18 Norte 0 1015.8 -1.2 80
2019-01-29 01:00:00 9.9 12 Oeste 35 Oeste 1.7 1016.9 -0.5 82
2019-01-29 00:00:00 11.6 13 Oeste 30 Noroeste 0 1017 -0.1 74
2019-01-28 23:00:00 10.9 9 Noroeste 32 Noroeste 0 1017 0.2 80
2019-01-28 22:00:00 11.3 17 Noroeste 35 Noroeste 0.3 1017.4 1 74
2019-01-28 21:00:00 11.2 16 Noroeste 41 Noroeste 0.2 1017.1 1.2 77
2019-01-28 20:00:00 11.3 18 Oeste 45 Norte 0.1 1016.8 1.4 76
2019-01-28 19:00:00 12 19 Noroeste 41 Noroeste 0 1016.4 1.6 71
2019-01-28 18:00:00 12.1 24 Noroeste 50 Noroeste 0.1 1015.9 1.5 76
2019-01-28 17:00:00 12.2 21 Noroeste 46 Oeste 0 1015.4 1.2 72
2019-01-28 16:00:00 11.6 19 Noroeste 52 Oeste 0 1014.8 0.9 80
2019-01-28 15:00:00 11.2 27 Oeste 63 Oeste 0.2 1014.4 0.7 80
2019-01-28 14:00:00 12.6 29 Oeste 67 Oeste 0 1014.2 1.2 75
2019-01-28 13:00:00 12.6 21 Oeste 50 Noroeste 0 1013.9 1.6 78
2019-01-28 12:00:00 13.2 30 Oeste 55 Oeste 0 1013.7 2.1 73
2019-01-28 11:00:00 12.8 24 Oeste 48 Oeste 0.2 1013 2.3 75
2019-01-28 10:00:00 12.4 28 Noroeste 65 Norte 0 1012.3 2.8 70
2019-01-28 09:00:00 12.5 26 Noroeste 55 Noroeste 0.1 1011.6 1 77
2019-01-28 08:00:00 12.6 27 Noroeste -- -- -- 1010.7 -0.7 84
2019-01-28 07:00:00 12.5 41 Sudoeste 84 Sudoeste 1.3 1009.5 -2.9 84
2019-01-28 06:00:00 12.6 18 Oeste 55 Sudoeste 1.9 1010.6 -3.2 85
2019-01-28 05:00:00 10 24 Sudoeste 41 Oeste 2.5 1011.4 -3.1 91
2019-01-28 04:00:00 9.6 19 Sudoeste 37 Sudoeste 1 1012.4 -3.6 89
2019-01-28 03:00:00 9.4 22 Sudoeste 33 Oeste 3.7 1013.8 -2.3 90
2019-01-28 02:00:00 9.8 22 Sudoeste 37 Oeste 0.1 1014.5 -2.5 81
2019-01-28 01:00:00 9.4 11 Sudoeste 63 Oeste 1.8 1016 -0.9 81
2019-01-28 00:00:00 10.8 13 Oeste 30 Noroeste 0 1016.1 -1.2 77
2019-01-27 23:00:00 9.8 19 Noroeste 59 Noroeste 1.3 1017 -0.1 84
2019-01-27 22:00:00 11.1 16 Noroeste 33 Noroeste 0 1016.9 0.4 69
2019-01-27 21:00:00 9.4 16 Oeste 58 Noroeste 2 1017.3 1.3 84
2019-01-27 20:00:00 10.3 16 Noroeste 58 Noroeste 0.7 1017.1 1.6 77
2019-01-27 19:00:00 11.3 20 Oeste 55 Noroeste 0.1 1016.5 1.3 69
2019-01-27 18:00:00 10.4 18 Oeste 54 Noroeste 0 1016 1.2 75
2019-01-27 17:00:00 11.7 17 Noroeste 52 Oeste 0 1015.5 1.5 61
2019-01-27 16:00:00 9.9 17 Oeste 68 Noroeste 0.7 1015.2 1.8 75
2019-01-27 15:00:00 11.3 24 Oeste 68 Noroeste 1 1014.8 2.4 64
2019-01-27 14:00:00 11.6 23 Oeste 61 Oeste 0 1014 2.5 71
2019-01-27 13:00:00 11.8 18 Oeste 65 Noroeste 0.5 1013.4 1.9 71
2019-01-27 12:00:00 12.1 29 Noroeste 67 Oeste 0.5 1012.4 1.4 67
2019-01-27 11:00:00 10.6 20 Oeste 46 Oeste 3.3 1011.5 1.1 76
2019-01-27 10:00:00 10.1 28 Sudoeste 58 Sudoeste 0.7 1011.5 0.5 84
2019-01-27 09:00:00 10.5 36 Sudoeste 54 Sudoeste 1.3 1011 0.2 78
2019-01-27 08:00:00 11.3 24 Sudoeste 55 Oeste 0 1010.4 -0.6 74
2019-01-27 07:00:00 10.9 31 Oeste 63 Oeste 1.5 1011 0 77
2019-01-27 06:00:00 12.1 31 Sudoeste 71 Sudoeste 0.1 1010.8 -0.4 77
2019-01-27 05:00:00 12 31 Sudoeste 59 Sudoeste 1.3 1011 -0.8 87
2019-01-27 04:00:00 10.1 18 Sudoeste 28 Oeste 0.1 1011 -1.7 85
2019-01-27 03:00:00 8.7 16 Sudoeste 21 Sudoeste 0 1011.2 -2.3 91
2019-01-27 02:00:00 8.8 10 Sur 15 Oeste 0 1011.8 -2.7 90
2019-01-27 01:00:00 9.5 8 Sur 15 Sur 0 1012.7 -2.1 89
2019-01-27 00:00:00 9.3 9 Sudoeste 17 Sur 0 1013.5 -1.5 90
2019-01-26 23:00:00 9.5 11 Sudoeste 17 Sur 0 1014.5 -0.8 90
2019-01-26 22:00:00 10 14 Sur -- -- 0 1014.8 -0.7 90
2019-01-26 21:00:00 8.2 9 Sur 11 Sudoeste 0 1015 -0.6 93
2019-01-26 20:00:00 9.4 8 Sudoeste 9 Sur 0 1015.3 -0.7 91
2019-01-26 19:00:00 10.7 4 Sudoeste 8 Norte 0 1015.5 -1.1 87
2019-01-26 18:00:00 12.6 5 Norte 9 Nordeste 0 1015.6 -1.5 81
2019-01-26 17:00:00 13.3 8 Nordeste 11 Nordeste 0 1016 -2.1 76
2019-01-26 16:00:00 14.7 9 Nordeste 11 Norte 0 1016.6 -2.6 67
2019-01-26 15:00:00 14.5 6 Norte 13 Norte 0 1017.1 -3.4 70
2019-01-26 14:00:00 14.2 5 Norte -- -- -- 1018.1 -3 80
2019-01-26 13:00:00 13.9 0 Calma 5 Sudeste 0 1019.2 -2.5 81
2019-01-26 12:00:00 12.2 5 Sur 13 Sudeste 0 1020.5 -1.3 92
2019-01-26 11:00:00 11.3 5 Sudeste 8 Sudeste 0.1 1021.1 -0.6 97
2019-01-26 10:00:00 10.8 3 Sur 5 Sudoeste 0.7 1021.7 0.1 97
2019-01-26 09:00:00 10.8 6 Sur 11 Sudoeste 0.3 1021.8 0 96
2019-01-26 08:00:00 11.3 9 Sudoeste 15 Sudoeste 0.1 1021.7 -0.3 92
2019-01-26 07:00:00 11.6 6 Oeste 13 Oeste 0 1021.6 -0.9 90
2019-01-26 06:00:00 11.7 5 Oeste 13 Oeste 0 1021.8 -0.9 93
2019-01-26 05:00:00 11.9 11 Oeste 18 Oeste 0 1022 -1.1 92
2019-01-26 04:00:00 11.1 6 Sur 11 Sur 0 1022.5 -0.9 96
2019-01-26 03:00:00 11.2 7 Sur 9 Sur 0.2 1022.7 -0.9 95
2019-01-26 02:00:00 11.5 3 Sudoeste 15 Sur 0 1023.1 -0.5 95
2019-01-26 01:00:00 11.7 10 Oeste 21 Noroeste 0.1 1023.4 0.1 95
2019-01-26 00:00:00 11.7 10 Noroeste 21 Noroeste 1.1 1023.6 0.4 95
2019-01-25 23:00:00 12 9 Oeste 17 Oeste 0 1023.6 1 95
2019-01-25 22:00:00 11.9 6 Noroeste 22 Noroeste 1 1023.3 0.8 96
2019-01-25 21:00:00 12.1 9 Noroeste 21 Noroeste 0.8 1023.2 0.9 95
2019-01-25 20:00:00 12.3 14 Oeste 28 Noroeste 1 1022.6 0.7 93
2019-01-25 19:00:00 12.2 13 Oeste 32 Noroeste 0.3 1022.5 0.9 94
2019-01-25 18:00:00 12.3 18 Noroeste 37 Noroeste 0.9 1022.3 1 94
2019-01-25 17:00:00 12.5 15 Noroeste 33 Oeste 0.8 1021.9 0.8 93
2019-01-25 16:00:00 12.9 17 Noroeste 33 Noroeste 0.3 1021.6 0.6 88
2019-01-25 15:00:00 13.2 15 Oeste 28 Noroeste 0 1021.3 0 89
2019-01-25 14:00:00 12.6 12 Oeste 37 Noroeste 1.7 1021.1 0.2 93
2019-01-25 13:00:00 12.7 15 Noroeste 33 Noroeste 0.2 1021 0.9 93
2019-01-25 12:00:00 12.5 17 Noroeste 35 Oeste 1.5 1021.3 2.3 94
2019-01-25 11:00:00 12.3 18 Noroeste 33 Noroeste 0 1020.9 2.7 94
2019-01-25 10:00:00 12.2 18 Noroeste 37 Noroeste 3.1 1020.1 2.4 95
2019-01-25 09:00:00 12.4 14 Noroeste 30 Noroeste 1.7 1019 1.5 94
2019-01-25 08:00:00 12.8 14 Noroeste 28 Noroeste 0.5 1018.2 0.9 90
2019-01-25 07:00:00 12.8 16 Noroeste 30 Noroeste 0 1017.7 0.5 89
2019-01-25 06:00:00 11.8 13 Noroeste 24 Noroeste 0 1017.5 0 92
2019-01-25 05:00:00 10.7 13 Oeste 22 Oeste 0 1017.3 -0.3 97
2019-01-25 04:00:00 7.3 7 Sur 11 Sur 0 1017.2 -0.8 97
2019-01-25 03:00:00 6.8 4 Sur 11 Este 0.5 1017.5 -0.5 96
2019-01-25 02:00:00 6.9 11 Sudeste 15 Sudeste 0.3 1017.6 -0.7 91
2019-01-25 01:00:00 7.4 9 Sudeste 13 Sudeste 0 1018 -0.3 87
2019-01-25 00:00:00 7.6 7 Sur 13 Sudeste 0 1018 -0.2 89
2019-01-24 23:00:00 7.6 9 Sudeste 11 Sudeste 0 1018.3 0.8 86
2019-01-24 22:00:00 7.7 8 Sudeste 13 Sudeste 0.3 1018.3 1.3 88
2019-01-24 21:00:00 8.2 4 Sur 8 Sur 0 1018.2 1.8 82
2019-01-24 20:00:00 8.2 3 Sudoeste 8 Sur 0 1017.5 1.3 81
2019-01-24 19:00:00 8.3 7 Sudoeste 11 Sudoeste 0 1017 1.2 79
2019-01-24 18:00:00 8.4 8 Sudoeste 11 Sudoeste 0 1016.4 0.6 76
2019-01-24 17:00:00 8.6 8 Sudoeste 11 Sudoeste 0 1016.2 0.9 78
2019-01-24 16:00:00 8.8 8 Sudoeste 13 Sudoeste 0 1015.8 0.7 77
2019-01-24 15:00:00 8.5 7 Sudoeste 15 Sudoeste 0 1015.8 0.5 77
2019-01-24 14:00:00 7.9 10 Sudoeste 15 Sudoeste 0 1015.3 1 80
2019-01-24 13:00:00 7.5 9 Sudoeste 13 Sudoeste 0 1015.1 1.2 80
2019-01-24 12:00:00 7.2 5 Sur 8 Sur 0 1015.3 1.9 75
2019-01-24 11:00:00 6.7 0 Calma 5 Sudoeste 0 1014.3 1.6 78
2019-01-24 10:00:00 6.6 0 Calma 5 Nordeste 0 1013.9 2.1 76
2019-01-24 09:00:00 6.5 5 Este 11 Nordeste 0 1013.4 2 71
2019-01-24 08:00:00 6.7 0 Calma 13 Sur 0 1012.7 1.6 73
2019-01-24 07:00:00 6.9 0 Calma 11 Este 0 1011.8 1.7 79
2019-01-24 06:00:00 6.7 6 Sur 18 Este 0.7 1011.4 1.6 89
2019-01-24 05:00:00 7.6 6 Nordeste 37 Norte 0.1 1011.1 1.5 83
2019-01-24 04:00:00 10.1 21 Norte 41 Norte 0 1010.1 0.8 68
2019-01-24 03:00:00 10.2 19 Norte 39 Norte 0 1009.8 0.9 72
2019-01-24 02:00:00 10.5 20 Norte 42 Noroeste 0 1009.6 0.7 64
2019-01-24 01:00:00 10.8 23 Norte 50 Norte 0 1009.3 0.8 64
2019-01-24 00:00:00 10.5 20 Norte 45 Norte 0 1008.9 1.2 68
2019-01-23 23:00:00 9.3 25 Norte 48 Norte 0.8 1008.9 2 80
2019-01-23 22:00:00 9.7 27 Norte 46 Noroeste 0.6 1008.5 2 83
2019-01-23 21:00:00 10.6 21 Norte 54 Norte 0 1007.7 1.5 75
2019-01-23 20:00:00 10.9 23 Noroeste 48 Noroeste 0.4 1006.9 1.3 79
2019-01-23 19:00:00 10.4 21 Noroeste 46 Oeste 0.6 1006.5 0.8 82
2019-01-23 18:00:00 10.3 25 Noroeste 59 Norte 0.3 1006.2 0.6 83
2019-01-23 17:00:00 10.4 14 Noroeste 41 Noroeste 1 1005.6 0.2 86
2019-01-23 16:00:00 10.7 20 Norte 45 Noroeste 0.9 1005.7 0 85
2019-01-23 15:00:00 11.5 22 Noroeste 41 Noroeste 0 1005.6 0.4 74
2019-01-23 14:00:00 11.1 15 Noroeste 45 Norte 0.6 1005.4 1 80
2019-01-23 13:00:00 10.9 23 Norte 54 Noroeste 0.6 1005.7 2.1 83
2019-01-23 12:00:00 11.3 23 Noroeste 48 Norte 1 1005.2 2.5 81
2019-01-23 11:00:00 12 22 Noroeste 42 Noroeste 0.5 1004.4 3.1 78
2019-01-23 10:00:00 11.2 19 Noroeste 54 Noroeste 0.6 1003.6 4 89
2019-01-23 09:00:00 11.3 12 Noroeste 46 Norte 0.7 1002.7 2.4 90
2019-01-23 08:00:00 12.3 28 Noroeste 72 Oeste 2.4 1001.3 0 89
2019-01-23 07:00:00 13 37 Oeste 71 Noroeste 0.8 999.6 -3.8 91
2019-01-23 06:00:00 9.4 27 Sudoeste 42 Sudoeste 4 1000.3 -4.4 94
2019-01-23 05:00:00 10.1 22 Sudoeste 41 Sudoeste 2.7 1001.3 -4.4 91
2019-01-23 04:00:00 10.9 12 Oeste 45 Sudoeste 1 1003.4 -3.1 88
2019-01-23 03:00:00 11.2 23 Oeste 45 Sudoeste 1.2 1004.7 -2.2 86
2019-01-23 02:00:00 10.7 11 Oeste 30 Noroeste 0.9 1005.7 -1.7 89
2019-01-23 01:00:00 9.9 13 Oeste 32 Sudoeste 1.2 1006.5 -2.2 91
2019-01-23 00:00:00 8.8 17 Oeste 33 Oeste 1.1 1006.9 -2.4 92
2019-01-22 23:00:00 7.6 18 Sudoeste 28 Sudoeste 1 1007.4 -2.4 92
2019-01-22 22:00:00 7.7 17 Sudoeste 28 Sudoeste 2.6 1008.7 -1.7 92
2019-01-22 21:00:00 8.4 18 Sudoeste 30 Sudoeste 3.3 1009.3 -1.2 92
2019-01-22 20:00:00 8.9 17 Sudoeste 33 Oeste 1.6 1009.8 -1.2 90
2019-01-22 19:00:00 8.8 14 Sudoeste 46 Oeste 3.4 1010.4 -0.9 88
2019-01-22 18:00:00 9.1 9 Sudoeste 33 Norte 4.1 1010.5 -1 85
2019-01-22 17:00:00 9.5 5 Sudoeste 48 Noroeste 0.9 1011 -1 81
2019-01-22 16:00:00 10.6 15 Noroeste 39 Noroeste 0.4 1011.3 -1.2 78
2019-01-22 15:00:00 9.6 12 Sudoeste 32 Norte 1.7 1011.5 -0.9 87
2019-01-22 14:00:00 9.4 13 Sudoeste 30 Sudoeste 5.1 1012 -1.3 89
2019-01-22 13:00:00 8.9 14 Oeste 45 Sudoeste 8.2 1012.5 -1.5 90
2019-01-22 12:00:00 8.4 19 Sudoeste 33 Sur 3.9 1012.4 -2.4 90
2019-01-22 11:00:00 8.5 20 Sudoeste 26 Oeste 0.9 1013.3 -2.3 88
2019-01-22 10:00:00 8.1 14 Sudoeste 24 Sudoeste 1.1 1014 -2.3 89
2019-01-22 09:00:00 7.8 14 Sudoeste 21 Sudoeste 0.5 1014.8 -2.3 88
2019-01-22 08:00:00 8 15 Sudoeste 21 Sudoeste 0 1015.6 -2.7 83
2019-01-22 07:00:00 7.7 10 Sudoeste 13 Sudoeste 0 1016.3 -3 85
2019-01-22 06:00:00 7.4 10 Sudoeste 15 Sudoeste 0 1017.1 -3.2 86
2019-01-22 05:00:00 7.6 14 Sudoeste 21 Sudoeste 0.1 1018.3 -2.8 85
2019-01-22 04:00:00 7.6 9 Sudoeste 17 Sudoeste 0 1019.3 -2.5 84
2019-01-22 03:00:00 7.7 12 Sudoeste 17 Sudoeste 0 1020.3 -1.7 84
2019-01-22 02:00:00 8 13 Sudoeste 21 Sudoeste 0 1021.1 -1 83
2019-01-22 01:00:00 8.7 11 Sudoeste 15 Sudoeste 0 1021.8 -1 78
2019-01-22 00:00:00 9.2 8 Noroeste 17 Norte 0 1022 -1.1 73
2019-01-21 23:00:00 9.3 7 Norte 22 Norte 0 1022.1 -1 73
2019-01-21 22:00:00 9.4 10 Noroeste 24 Noroeste 0 1022.8 -0.4 73
2019-01-21 21:00:00 9 7 Oeste 13 Noroeste 0 1023.1 0 69
2019-01-21 20:00:00 8.8 5 Oeste 17 Oeste 0 1023.1 0.3 67
2019-01-21 19:00:00 8.8 7 Noroeste 24 Noroeste 0 1023.2 0.5 69
2019-01-21 18:00:00 9.1 6 Noroeste 15 Nordeste 0 1023.1 0.3 78
2019-01-21 17:00:00 9.3 10 Nordeste 17 Nordeste 0 1022.8 -0.4 80
2019-01-21 16:00:00 9.5 4 Norte 15 Nordeste 0 1022.7 -1 79
2019-01-21 15:00:00 9.4 4 Este 5 Este 0 1022.8 -1.2 76
2019-01-21 14:00:00 9.1 5 Sur 9 Sudeste 0 1023.2 -0.2 78
2019-01-21 13:00:00 8.7 8 Este 18 Nordeste 0 1023.7 1.3 81
2019-01-21 12:00:00 8.4 2 Este 8 Sudeste 0 1024 3 89
2019-01-21 11:00:00 8.2 5 Sudoeste 11 Sudeste 0 1023.4 2.5 92
2019-01-21 10:00:00 8.3 10 Este 35 Norte 0.5 1022.4 1.6 93
2019-01-21 09:00:00 8.3 9 Sur 13 Sur 0 1021 0.7 93
2019-01-21 08:00:00 8.2 8 Sudoeste 13 Sudoeste 0 1020.9 0.7 93
2019-01-21 07:00:00 8.3 5 Sudoeste 9 Sudoeste 0.1 1020.8 0.8 93
2019-01-21 06:00:00 8.3 6 Sudoeste 13 Sur 0 1020.3 0.6 92
2019-01-21 05:00:00 8.1 6 Oeste 11 Oeste 0 1020.2 0.4 92
2019-01-21 04:00:00 8 9 Sur 11 Sudoeste 0 1020 0.5 94
2019-01-21 03:00:00 8.1 4 Oeste 11 Sur 0 1019.7 0.7 91
2019-01-21 02:00:00 8.7 9 Este 21 Este 1.2 1019.8 1.3 90
2019-01-21 01:00:00 9 5 Sur 8 Sur 0 1019.5 1.5 87
2019-01-21 00:00:00 9.9 9 Este 35 Nordeste 0 1019 1.3 80
2019-01-20 23:00:00 10.8 8 Nordeste 22 Norte 0 1018.5 1.3 80
2019-01-20 22:00:00 10.5 8 Sur 24 Norte 0 1018 1.7 84
2019-01-20 21:00:00 9.6 6 Noroeste 18 Norte 2.1 1017.7 1.8 90
2019-01-20 20:00:00 10 12 Noroeste 32 Norte 3.9 1017.2 2 88
2019-01-20 19:00:00 10.5 9 Sur 13 Noroeste 0 1016.3 1.8 87
2019-01-20 18:00:00 10.6 6 Noroeste 32 Noroeste 0.8 1015.9 1.5 84
2019-01-20 17:00:00 12.1 10 Norte 32 Norte 0.1 1015.2 0.8 76
2019-01-20 16:00:00 12.6 12 Noroeste 22 Noroeste 0 1014.5 0.4 75
2019-01-20 15:00:00 11.8 12 Noroeste 22 Noroeste 0.6 1014.4 0.3 79
2019-01-20 14:00:00 13.2 14 Noroeste 28 Norte 0 1014.4 0.9 70
2019-01-20 13:00:00 12.9 13 Norte 26 Noroeste 0 1014.1 1.7 73
2019-01-20 12:00:00 11.5 10 Noroeste 26 Noroeste 0 1014.1 2.5 81
2019-01-20 11:00:00 10.5 18 Oeste 39 Oeste 0.2 1013.5 2.1 82
2019-01-20 10:00:00 10.4 17 Noroeste 35 Noroeste 1.7 1012.4 1.8 82
2019-01-20 09:00:00 9.3 14 Sudoeste 18 Sudoeste 0 1011.6 1.3 93
2019-01-20 08:00:00 9.3 12 Sudoeste 28 Sudoeste 3.5 1011.4 1.4 90
2019-01-20 07:00:00 9.8 15 Sudoeste 21 Sudoeste 0 1010.6 0.5 79
2019-01-20 06:00:00 9.6 15 Sudoeste 21 Sudoeste 0 1010.3 0.6 80
2019-01-20 05:00:00 9.5 9 Sur 13 Sur 0 1010 0.9 85
2019-01-20 04:00:00 9.4 9 Sudoeste 11 Sudoeste 0 1010.1 1.3 86
2019-01-20 03:00:00 9.5 9 Sudoeste 15 Sudoeste 0 1009.7 1.4 86
2019-01-20 02:00:00 9.8 8 Sudoeste 13 Sudoeste 0 1009.1 1.6 84
2019-01-20 01:00:00 10.3 6 Sur 9 Sudoeste 0 1008.8 1.7 80
2019-01-20 00:00:00 11.1 2 Sudeste 13 Sur 0 1008.3 1.3 71
2019-01-19 23:00:00 11.3 4 Sur 15 Sur 0 1007.5 0.5 70
2019-01-19 22:00:00 11.7 13 Sur 18 Sur 0 1007.1 0 69
2019-01-19 21:00:00 12.2 11 Sur 21 Sur 0 1007 -0.4 63
2019-01-19 20:00:00 12.4 18 Sur 24 Sur 0 1007 -0.9 60
2019-01-19 19:00:00 12.2 13 Sur 24 Sudoeste 0 1007.1 -1.3 61
2019-01-19 18:00:00 12.7 10 Sudoeste 22 Sudoeste 0 1007.4 -1.7 57
2019-01-19 17:00:00 12.9 13 Sur 26 Sudoeste 0 1007.9 -2.5 59
2019-01-19 16:00:00 13.4 17 Sur 28 Sur 0 1008.4 -3.4 59
2019-01-19 15:00:00 12.9 16 Sudeste 26 Sudeste 0 1009.1 -3.9 63
2019-01-19 14:00:00 13.1 14 Sur 21 Sur 0 1010.4 -3.1 64
2019-01-19 13:00:00 13.1 6 Sudeste 11 Sur 0 1011.8 -1.8 65
2019-01-19 12:00:00 12.6 9 Sur 15 Sudoeste 0 1013 -0.7 67
2019-01-19 11:00:00 12 10 Sur 17 Sudoeste 0 1013.5 -0.2 71
2019-01-19 10:00:00 9.4 11 Sudoeste 13 Sudoeste 0 1013.6 -0.3 86
2019-01-19 09:00:00 8.6 10 Sudoeste 17 Sudoeste 0 1013.7 0.2 87
2019-01-19 08:00:00 8.8 15 Sudoeste 24 Sudoeste 0.2 1013.7 -0.4 87
2019-01-19 07:00:00 9.1 12 Sudoeste 22 Sudoeste 0.1 1013.9 -0.8 82
2019-01-19 06:00:00 8.8 11 Sudoeste 21 Sudoeste 0 1013.5 -1 86
2019-01-19 05:00:00 8.9 14 Sudoeste 21 Sudoeste 0.1 1014.1 -1.1 88
2019-01-19 04:00:00 9 16 Sudoeste 26 Oeste 0.1 1014.7 -0.8 86
2019-01-19 03:00:00 8.4 12 Sudoeste 18 Sudoeste 0.1 1014.5 -1.1 90
2019-01-19 02:00:00 8.2 14 Sudoeste 21 Sudoeste 0.9 1015.2 -0.1 91
2019-01-19 01:00:00 8.2 11 Sudoeste 13 Sudoeste 0.2 1015.5 0.2 87
2019-01-19 00:00:00 7.9 11 Sur 13 Sur 0 1015.6 0.2 88